Time;durP1;ratioP1;P1;durP2;ratioP2;P2;SDS_P1;SDS_P2;PMS_P1;PMS_P2;Temp;Humidity;BMP_temperature;BMP_pressure;BME280_temperature;BME280_humidity;BME280_pressure;Samples;Min_cycle;Max_cycle;Signal;HPM_P1;HPM_P2
2022/06/07 00:01:07;;;;;;;2.07;0.80;;;;;;;18.76;85.18;95405.09;4367780;32;20242;-61
2022/06/07 00:03:34;;;;;;;0.77;0.77;;;;;;;18.64;84.74;95410.53;4363203;32;20200;-60
2022/06/07 00:06:01;;;;;;;0.73;0.73;;;;;;;18.52;85.37;95408.62;4361079;32;20332;-60
2022/06/07 00:08:27;;;;;;;0.80;0.80;;;;;;;18.55;84.85;95397.19;4352895;32;20274;-60
2022/06/07 00:10:52;;;;;;;1.63;1.60;;;;;;;18.43;85.31;95405.31;4371492;32;20213;-60
2022/06/07 00:13:18;;;;;;;1.10;1.10;;;;;;;18.37;85.46;95409.34;4360149;32;20216;-60
2022/06/07 00:15:44;;;;;;;1.23;1.23;;;;;;;18.31;85.82;95411.50;4373614;32;20204;-60
2022/06/07 00:18:11;;;;;;;1.57;1.47;;;;;;;18.26;86.25;95417.12;4360932;32;20246;-60
2022/06/07 00:20:38;;;;;;;1.53;1.43;;;;;;;18.20;87.77;95415.78;4347490;32;20252;-60
2022/06/07 00:23:07;;;;;;;1.17;1.17;;;;;;;18.19;88.10;95414.22;4360952;32;20193;-60
2022/06/07 00:25:34;;;;;;;1.20;1.20;;;;;;;18.13;87.73;95418.25;4367634;32;20264;-60
2022/06/07 00:28:00;;;;;;;1.30;1.20;;;;;;;18.20;88.75;95426.53;4351670;32;20209;-60
2022/06/07 00:30:27;;;;;;;1.50;1.47;;;;;;;18.07;89.65;95428.47;4360565;32;20344;-60
2022/06/07 00:32:53;;;;;;;2.43;1.30;;;;;;;18.20;91.47;95430.00;4360041;32;20195;-60
2022/06/07 00:35:19;;;;;;;1.53;0.80;;;;;;;18.25;91.65;95434.34;4360727;32;20206;-60
2022/06/07 00:37:44;;;;;;;0.83;0.83;;;;;;;18.05;91.05;95433.38;4360357;32;20211;-60
2022/06/07 00:40:11;;;;;;;1.17;1.17;;;;;;;18.11;92.61;95436.59;4360579;32;20192;-60
2022/06/07 00:42:37;;;;;;;0.87;0.87;;;;;;;18.09;92.19;95436.16;4347935;32;20204;-61
2022/06/07 00:45:04;;;;;;;1.07;1.07;;;;;;;18.13;92.43;95437.81;4366938;32;20205;-60
2022/06/07 00:47:31;;;;;;;0.90;0.90;;;;;;;18.08;90.05;95435.37;4358578;32;20193;-60
2022/06/07 00:50:38;;;;;;;1.27;1.27;;;;;;;18.12;90.61;95443.53;4366196;32;20288;-61
2022/06/07 00:53:15;;;;;;;0.70;0.70;;;;;;;18.17;92.54;95454.06;4359696;32;20192;-61
2022/06/07 00:55:41;;;;;;;1.07;1.07;;;;;;;18.14;90.39;95452.81;4369162;32;20284;-60
2022/06/07 00:58:06;;;;;;;0.73;0.73;;;;;;;18.04;91.68;95447.12;4362178;32;20212;-60
2022/06/07 01:00:33;;;;;;;0.83;0.67;;;;;;;17.92;93.75;95450.59;4351376;32;20196;-60
2022/06/07 01:02:59;;;;;;;1.17;1.17;;;;;;;17.80;94.20;95459.44;4346113;32;20193;-60
2022/06/07 01:05:26;;;;;;;1.47;1.47;;;;;;;17.78;93.80;95461.69;4346157;32;20204;-60
2022/06/07 01:10:46;;;;;;;3.47;1.63;;;;;;;17.60;90.18;95475.63;4363872;32;20227;-61
2022/06/07 01:13:17;;;;;;;0.90;0.90;;;;;;;17.44;91.03;95467.44;4361233;32;20184;-60
2022/06/07 01:15:45;;;;;;;0.53;0.53;;;;;;;17.48;92.21;95461.06;4356066;32;20229;-60
2022/06/07 01:18:13;;;;;;;1.07;1.07;;;;;;;17.53;92.93;95465.44;4348980;32;20184;-60
2022/06/07 01:20:39;;;;;;;0.77;0.77;;;;;;;17.41;93.67;95473.47;4350206;32;20193;-60
2022/06/07 01:23:07;;;;;;;0.80;0.80;;;;;;;17.31;93.21;95457.78;4360825;32;20196;-60
2022/06/07 01:25:35;;;;;;;0.60;0.60;;;;;;;17.26;90.58;95458.00;4367005;32;20205;-60
2022/06/07 01:28:01;;;;;;;0.77;0.77;;;;;;;17.27;94.33;95460.34;4354509;32;20184;-60
2022/06/07 01:30:28;;;;;;;0.80;0.80;;;;;;;17.14;95.44;95456.09;4346623;32;20280;-60
2022/06/07 01:32:55;;;;;;;1.23;1.20;;;;;;;17.00;92.59;95448.34;4363315;32;20241;-60
2022/06/07 01:35:20;;;;;;;0.50;0.50;;;;;;;17.15;95.26;95453.06;4363091;32;20220;-61
2022/06/07 01:37:45;;;;;;;0.60;0.60;;;;;;;17.13;94.94;95447.25;4345714;32;20227;-61
2022/06/07 01:42:57;;;;;;;1.03;1.03;;;;;;;17.09;95.77;95437.50;4344451;32;20318;-61
2022/06/07 01:45:23;;;;;;;2.90;1.10;;;;;;;17.13;96.16;95433.06;4349783;32;20189;-61
2022/06/07 01:47:50;;;;;;;0.70;0.70;;;;;;;16.97;95.74;95435.59;4361054;32;20224;-61
2022/06/07 01:50:17;;;;;;;1.70;1.47;;;;;;;16.98;96.42;95431.81;4359754;32;20189;-61
2022/06/07 01:52:42;;;;;;;5.93;1.00;;;;;;;17.01;95.07;95427.69;4358505;32;20200;-61
2022/06/07 01:55:08;;;;;;;0.90;0.90;;;;;;;17.12;96.41;95424.25;4364070;32;20216;-61
2022/06/07 01:57:35;;;;;;;0.83;0.83;;;;;;;17.05;96.00;95413.25;4361000;32;20220;-61
2022/06/07 02:00:04;;;;;;;0.93;0.93;;;;;;;17.06;95.54;95409.47;4362035;32;20205;-61
2022/06/07 02:02:30;;;;;;;0.63;0.63;;;;;;;16.95;94.70;95411.03;4358548;32;20188;-61
2022/06/07 02:04:57;;;;;;;0.90;0.90;;;;;;;16.95;95.26;95399.53;4358406;32;20326;-61
2022/06/07 02:07:22;;;;;;;0.67;0.67;;;;;;;17.01;94.20;95390.16;4357644;32;20197;-61
2022/06/07 02:09:49;;;;;;;0.50;0.50;;;;;;;17.01;95.50;95384.81;4344979;32;20231;-61
2022/06/07 02:12:16;;;;;;;1.83;1.23;;;;;;;16.95;96.06;95386.91;4359042;32;20184;-61
2022/06/07 02:14:42;;;;;;;0.90;0.90;;;;;;;17.22;96.10;95379.34;4369562;32;20192;-61
2022/06/07 02:17:08;;;;;;;0.73;0.73;;;;;;;17.19;96.15;95375.44;4358793;32;20231;-61
2022/06/07 02:19:36;;;;;;;0.60;0.60;;;;;;;17.10;95.31;95378.22;4362920;32;20207;-61
2022/06/07 02:22:04;;;;;;;1.30;1.20;;;;;;;17.26;94.62;95378.34;4359657;32;20192;-61
2022/06/07 02:24:31;;;;;;;0.40;0.40;;;;;;;17.28;94.41;95380.69;4358277;32;20201;-61
2022/06/07 02:27:04;;;;;;;0.37;0.37;;;;;;;17.31;94.03;95378.12;4345513;32;20276;-61
2022/06/07 02:29:38;;;;;;;0.87;0.87;;;;;;;17.29;94.98;95374.22;4358527;32;20189;-61
2022/06/07 02:32:17;;;;;;;0.70;0.70;;;;;;;17.32;95.13;95370.84;4341724;32;20179;-61
2022/06/07 02:34:47;;;;;;;0.60;0.57;;;;;;;17.26;95.52;95380.22;4367910;32;20227;-61
2022/06/07 02:37:15;;;;;;;1.03;0.90;;;;;;;17.21;94.55;95385.84;4373905;32;20223;-61
2022/06/07 02:39:42;;;;;;;1.03;1.03;;;;;;;17.32;95.24;95393.09;4360182;32;20208;-61
2022/06/07 02:42:11;;;;;;;1.10;0.97;;;;;;;17.11;93.86;95390.50;4359830;32;20203;-61
2022/06/07 02:44:36;;;;;;;0.97;0.97;;;;;;;17.01;94.10;95390.94;4373966;32;20184;-62
2022/06/07 02:47:03;;;;;;;0.60;0.60;;;;;;;17.09;94.09;95383.91;4352159;32;20186;-61
2022/06/07 02:49:30;;;;;;;0.60;0.60;;;;;;;16.94;94.34;95388.00;4356657;32;20208;-61
2022/06/07 02:51:56;;;;;;;0.90;0.90;;;;;;;16.87;94.87;95386.97;4344343;32;20197;-61
2022/06/07 02:54:23;;;;;;;0.67;0.67;;;;;;;16.76;95.04;95392.00;4351933;32;20201;-61
2022/06/07 02:56:49;;;;;;;0.80;0.80;;;;;;;16.92;96.29;95402.84;4343101;32;20219;-61
2022/06/07 02:59:16;;;;;;;0.90;0.90;;;;;;;17.01;95.96;95409.72;4353938;32;20193;-61
2022/06/07 03:01:43;;;;;;;0.83;0.83;;;;;;;16.98;95.21;95404.22;4343854;32;20197;-61
2022/06/07 03:04:08;;;;;;;1.03;1.03;;;;;;;16.92;96.28;95398.28;4374999;32;20209;-61
2022/06/07 03:06:34;;;;;;;0.80;0.80;;;;;;;16.83;96.83;95400.28;4352871;32;20199;-61
2022/06/07 03:09:01;;;;;;;0.70;0.70;;;;;;;16.83;95.73;95406.41;4352444;32;20188;-61
2022/06/07 03:11:28;;;;;;;0.80;0.80;;;;;;;16.98;95.76;95399.66;4344050;32;20335;-61
2022/06/07 03:13:55;;;;;;;0.63;0.37;;;;;;;16.89;94.90;95398.94;4354587;32;20221;-61
2022/06/07 03:16:21;;;;;;;0.83;0.83;;;;;;;17.00;95.20;95405.47;4365990;32;20245;-61
2022/06/07 03:18:47;;;;;;;0.60;0.60;;;;;;;17.13;95.33;95412.41;4362902;32;20219;-60
2022/06/07 03:21:12;;;;;;;0.90;0.90;;;;;;;17.25;94.87;95405.50;4363278;32;20256;-60
2022/06/07 03:23:37;;;;;;;0.30;0.30;;;;;;;17.13;95.03;95409.72;4362158;32;20193;-61
2022/06/07 03:26:09;;;;;;;0.83;0.83;;;;;;;17.12;95.00;95412.72;4360052;32;20186;-60
2022/06/07 03:28:36;;;;;;;0.50;0.50;;;;;;;17.22;95.48;95403.50;4367721;32;20207;-60
2022/06/07 03:31:13;;;;;;;0.43;0.43;;;;;;;17.20;94.58;95397.69;4369520;32;20189;-60
2022/06/07 03:33:40;;;;;;;0.80;0.80;;;;;;;17.13;93.76;95400.91;4358794;32;20192;-60
2022/06/07 03:36:20;;;;;;;0.30;0.30;;;;;;;17.13;93.92;95409.72;4341684;32;20197;-60
2022/06/07 03:38:46;;;;;;;0.90;0.90;;;;;;;17.03;93.65;95404.81;4357041;32;20233;-60
2022/06/07 03:41:17;;;;;;;0.40;0.40;;;;;;;17.16;94.89;95405.59;4357533;32;20247;-60
2022/06/07 03:43:42;;;;;;;0.27;0.27;;;;;;;17.14;93.86;95407.81;4361307;32;20243;-60
2022/06/07 03:46:17;;;;;;;0.70;0.70;;;;;;;17.10;92.58;95399.66;4357387;32;20201;-61
2022/06/07 03:48:44;;;;;;;1.27;0.70;;;;;;;17.00;91.95;95405.47;4346250;32;20189;-60
2022/06/07 03:51:10;;;;;;;0.90;0.90;;;;;;;17.07;91.29;95407.56;4359824;32;20200;-60
2022/06/07 03:53:38;;;;;;;0.53;0.53;;;;;;;17.13;92.93;95401.69;4350446;32;20209;-60
2022/06/07 03:56:07;;;;;;;0.53;0.53;;;;;;;17.12;93.18;95405.47;4352681;32;20241;-60
2022/06/07 03:58:33;;;;;;;0.30;0.30;;;;;;;17.13;92.92;95408.94;4348848;32;20290;-60
2022/06/07 04:01:00;;;;;;;0.30;0.30;;;;;;;17.21;92.96;95415.34;4350573;32;20196;-60
2022/06/07 04:03:26;;;;;;;0.80;0.80;;;;;;;17.21;93.82;95410.75;4333008;32;20193;-60
2022/06/07 04:05:52;;;;;;;0.30;0.30;;;;;;;17.28;93.94;95405.59;4350011;32;20261;-60
2022/06/07 04:08:18;;;;;;;0.33;0.33;;;;;;;17.26;93.88;95407.84;4355998;32;20204;-60
2022/06/07 04:10:50;;;;;;;0.43;0.43;;;;;;;17.22;94.52;95415.00;4344836;32;20189;-61
2022/06/07 04:13:19;;;;;;;0.70;0.70;;;;;;;17.18;94.87;95409.50;4339548;32;20184;-61
2022/06/07 04:15:46;;;;;;;0.50;0.50;;;;;;;17.06;94.34;95412.16;4353813;32;20221;-61
2022/06/07 04:18:13;;;;;;;1.40;0.50;;;;;;;17.07;94.63;95410.25;4360491;32;20209;-61
2022/06/07 04:20:40;;;;;;;0.50;0.50;;;;;;;17.15;94.90;95407.50;4354865;32;20208;-61
2022/06/07 04:23:07;;;;;;;0.70;0.63;;;;;;;17.16;95.29;95409.06;4347710;32;20259;-61
2022/06/07 04:25:39;;;;;;;0.30;0.30;;;;;;;17.15;94.23;95402.12;4348836;32;20185;-61
2022/06/07 04:28:06;;;;;;;0.60;0.60;;;;;;;17.11;93.92;95403.91;4352924;32;20208;-61
2022/06/07 04:30:32;;;;;;;0.50;0.50;;;;;;;17.07;94.14;95400.31;4357657;32;20192;-60
2022/06/07 04:32:59;;;;;;;0.73;0.73;;;;;;;16.81;92.61;95397.16;4344153;32;20246;-61
2022/06/07 04:35:26;;;;;;;0.57;0.57;;;;;;;16.61;93.47;95397.94;4342673;32;20190;-60
2022/06/07 04:37:54;;;;;;;0.80;0.80;;;;;;;16.82;95.77;95393.34;4342180;32;20193;-60
2022/06/07 04:40:21;;;;;;;0.40;0.40;;;;;;;16.93;94.44;95393.69;4350929;32;20287;-60
2022/06/07 04:42:47;;;;;;;0.40;0.40;;;;;;;16.86;94.18;95390.78;4339679;32;20204;-61
2022/06/07 04:45:16;;;;;;;0.40;0.40;;;;;;;16.94;94.91;95395.28;4339159;32;20202;-61
2022/06/07 04:47:45;;;;;;;0.50;0.50;;;;;;;16.93;94.79;95399.06;4351706;32;20220;-60
2022/06/07 04:50:15;;;;;;;0.97;0.63;;;;;;;16.77;93.94;95406.94;4369796;32;20184;-61
2022/06/07 04:52:44;;;;;;;0.67;0.67;;;;;;;16.79;94.38;95404.72;4360265;32;20189;-61
2022/06/07 04:55:10;;;;;;;0.60;0.60;;;;;;;16.90;94.54;95405.09;4366273;32;20192;-61
2022/06/07 04:57:36;;;;;;;0.30;0.30;;;;;;;16.96;94.46;95396.50;4372990;32;20197;-61
2022/06/07 05:00:06;;;;;;;0.40;0.40;;;;;;;17.06;94.34;95404.09;4370746;32;20203;-60
2022/06/07 05:02:32;;;;;;;0.60;0.60;;;;;;;16.83;94.34;95389.56;4366368;32;20185;-60
2022/06/07 05:04:59;;;;;;;0.30;0.30;;;;;;;16.97;95.35;95389.25;4346097;32;20295;-60
2022/06/07 05:07:25;;;;;;;1.30;0.83;;;;;;;17.01;94.19;95388.25;4366287;32;20232;-60
2022/06/07 05:09:52;;;;;;;0.23;0.23;;;;;;;17.06;93.73;95388.03;4375312;32;20185;-60
2022/06/07 05:12:18;;;;;;;0.67;0.67;;;;;;;16.78;93.40;95392.44;4350175;32;20215;-60
2022/06/07 05:14:45;;;;;;;0.80;0.80;;;;;;;16.79;93.53;95389.44;4360308;32;20223;-60
2022/06/07 05:17:12;;;;;;;0.83;0.73;;;;;;;17.01;94.11;95385.59;4347179;32;20185;-61
2022/06/07 05:19:37;;;;;;;0.60;0.60;;;;;;;16.99;93.36;95387.03;4370089;32;20211;-61
2022/06/07 05:22:04;;;;;;;0.77;0.77;;;;;;;17.10;94.45;95388.16;4354240;32;20217;-60
2022/06/07 05:24:30;;;;;;;0.70;0.70;;;;;;;17.13;94.69;95382.13;4347272;32;20185;-60
2022/06/07 05:27:00;;;;;;;0.70;0.70;;;;;;;17.09;93.70;95384.69;4358439;32;20296;-60
2022/06/07 05:29:49;;;;;;;1.10;0.97;;;;;;;17.16;94.04;95392.19;4354958;32;20253;-60
2022/06/07 05:32:17;;;;;;;0.40;0.40;;;;;;;17.02;92.58;95392.50;4345006;32;20255;-60
2022/06/07 05:34:44;;;;;;;0.50;0.50;;;;;;;17.03;93.36;95388.72;4355429;32;20193;-60
2022/06/07 05:37:18;;;;;;;0.63;0.50;;;;;;;17.03;92.05;95385.25;4358219;32;20185;-60
2022/06/07 05:39:44;;;;;;;0.70;0.70;;;;;;;16.99;93.16;95387.03;4341675;32;20264;-59
2022/06/07 05:42:11;;;;;;;0.40;0.40;;;;;;;17.01;90.71;95385.59;4351267;32;20241;-60
2022/06/07 05:44:37;;;;;;;0.27;0.27;;;;;;;17.19;93.49;95378.12;4346647;32;20173;-61
2022/06/07 05:47:05;;;;;;;0.43;0.40;;;;;;;17.02;92.25;95384.47;4342824;32;20264;-60
2022/06/07 05:49:33;;;;;;;0.50;0.50;;;;;;;16.97;91.74;95379.31;4349084;32;20199;-60
2022/06/07 05:52:01;;;;;;;8.07;0.60;;;;;;;16.99;91.97;95381.66;4350587;32;20219;-60
2022/06/07 05:54:34;;;;;;;0.83;0.60;;;;;;;17.11;92.95;95377.09;4344441;32;20265;-60
2022/06/07 05:57:01;;;;;;;0.40;0.40;;;;;;;17.05;92.21;95383.78;4344354;32;20208;-60
2022/06/07 05:59:28;;;;;;;0.40;0.40;;;;;;;16.93;91.72;95388.34;4344605;32;20268;-60
2022/06/07 06:01:54;;;;;;;0.60;0.60;;;;;;;16.90;92.97;95381.75;4348274;32;20193;-60
2022/06/07 06:04:19;;;;;;;0.90;0.90;;;;;;;16.94;93.21;95385.34;4334817;32;20223;-60
2022/06/07 06:06:45;;;;;;;8.67;1.47;;;;;;;16.95;93.35;95386.91;4358757;32;20193;-60
2022/06/07 06:11:56;;;;;;;0.60;0.60;;;;;;;17.03;91.34;95388.72;4343815;32;20259;-61
2022/06/07 06:14:23;;;;;;;0.60;0.60;;;;;;;16.85;92.98;95390.00;4330000;32;20198;-60
2022/06/07 06:16:52;;;;;;;0.70;0.70;;;;;;;16.81;93.96;95386.44;4343353;32;20208;-60
2022/06/07 06:19:19;;;;;;;0.80;0.80;;;;;;;16.89;94.30;95392.78;4344581;32;20197;-61
2022/06/07 06:21:45;;;;;;;0.40;0.40;;;;;;;16.88;93.65;95386.66;4348713;32;20288;-61
2022/06/07 06:24:11;;;;;;;0.67;0.67;;;;;;;16.87;94.25;95379.72;4338913;32;20189;-61
2022/06/07 06:26:38;;;;;;;0.70;0.70;;;;;;;16.91;94.66;95386.00;4336497;32;20212;-62
2022/06/07 06:29:06;;;;;;;3.83;1.17;;;;;;;16.91;93.58;95375.28;4348774;32;20249;-61
2022/06/07 06:31:32;;;;;;;7.73;1.67;;;;;;;16.82;92.13;95386.09;4331136;32;20197;-61
2022/06/07 06:33:59;;;;;;;6.13;2.07;;;;;;;16.86;93.56;95382.72;4334550;32;20220;-61
2022/06/07 06:36:26;;;;;;;3.70;1.80;;;;;;;16.95;93.83;95380.75;4346049;32;20288;-61
2022/06/07 06:38:53;;;;;;;7.43;1.73;;;;;;;16.88;93.22;95383.97;4337688;32;20189;-61
2022/06/07 06:41:25;;;;;;;2.30;1.57;;;;;;;17.04;93.05;95387.56;4347655;32;20185;-61
2022/06/07 06:43:52;;;;;;;3.97;1.47;;;;;;;16.99;93.29;95387.81;4343850;32;20216;-60
2022/06/07 06:46:33;;;;;;;1.50;1.23;;;;;;;17.03;94.21;95386.03;4346254;32;20197;-60
2022/06/07 06:49:00;;;;;;;2.47;1.50;;;;;;;17.23;93.03;95391.66;4335416;32;20193;-60
2022/06/07 06:51:28;;;;;;;0.87;0.70;;;;;;;17.15;92.20;95396.00;4345555;32;20193;-61
2022/06/07 06:54:00;;;;;;;0.83;0.67;;;;;;;17.08;91.60;95401.88;4337600;32;20205;-60
2022/06/07 06:56:29;;;;;;;4.40;1.17;;;;;;;17.03;90.68;95406.69;4340014;32;20186;-61
2022/06/07 06:58:55;;;;;;;1.17;0.90;;;;;;;17.01;91.23;95400.88;4339565;32;20213;-61
2022/06/07 07:01:26;;;;;;;0.70;0.70;;;;;;;16.99;92.75;95403.91;4341603;32;20189;-61
2022/06/07 07:03:53;;;;;;;14.83;2.30;;;;;;;16.84;91.43;95401.81;4342188;32;20197;-61
2022/06/07 07:06:21;;;;;;;1.50;1.50;;;;;;;16.92;93.99;95409.00;4347674;32;20227;-61
2022/06/07 07:08:48;;;;;;;3.10;1.93;;;;;;;16.91;93.94;95409.31;4351919;32;20177;-61
2022/06/07 07:11:26;;;;;;;22.63;2.83;;;;;;;16.84;94.25;95409.84;4358971;32;20253;-61
2022/06/07 07:13:54;;;;;;;1.50;1.40;;;;;;;16.95;94.60;95419.06;4343628;32;20197;-61
2022/06/07 07:16:23;;;;;;;8.83;2.70;;;;;;;16.96;93.02;95417.94;4342042;32;20205;-61
2022/06/07 07:18:51;;;;;;;1.53;1.47;;;;;;;16.66;95.03;95411.94;4342397;32;20250;-62
2022/06/07 07:21:23;;;;;;;4.40;2.00;;;;;;;16.80;96.72;95415.13;4355806;32;20243;-62
2022/06/07 07:23:51;;;;;;;2.17;2.07;;;;;;;16.61;96.59;95414.78;4330324;33;20185;-62
2022/06/07 07:26:20;;;;;;;1.60;1.47;;;;;;;16.81;97.93;95418.59;4342921;32;20212;-62
2022/06/07 07:28:49;;;;;;;1.50;1.40;;;;;;;16.67;98.13;95423.41;4332051;33;20189;-61
2022/06/07 07:31:19;;;;;;;0.83;0.83;;;;;;;16.76;97.71;95426.81;4349375;32;20266;-61
2022/06/07 07:33:46;;;;;;;1.10;1.10;;;;;;;16.50;97.46;95435.03;4344140;33;20247;-61
2022/06/07 07:36:12;;;;;;;4.43;1.53;;;;;;;16.74;97.77;95437.09;4356072;32;20193;-63
2022/06/07 07:38:39;;;;;;;0.77;0.77;;;;;;;16.79;97.13;95437.66;4344700;32;20196;-61
2022/06/07 07:41:25;;;;;;;0.40;0.40;;;;;;;16.50;95.84;95441.19;4355494;32;20197;-60
2022/06/07 07:43:55;;;;;;;1.03;1.03;;;;;;;16.29;96.46;95444.97;4330997;33;20193;-60
2022/06/07 07:46:25;;;;;;;0.70;0.70;;;;;;;16.24;96.97;95447.84;4346435;32;20213;-60
2022/06/07 07:48:52;;;;;;;0.83;0.80;;;;;;;16.14;97.49;95454.38;4356822;32;20223;-60
2022/06/07 07:51:24;;;;;;;0.60;0.60;;;;;;;15.96;97.96;95444.88;4357029;32;20204;-60
2022/06/07 07:53:57;;;;;;;0.90;0.90;;;;;;;15.78;97.86;95439.62;4344791;32;20235;-60
2022/06/07 07:56:25;;;;;;;0.60;0.60;;;;;;;15.75;98.55;95442.97;4346992;32;20188;-60
2022/06/07 07:58:53;;;;;;;1.17;1.00;;;;;;;15.81;97.80;95438.97;4359738;32;20188;-60
2022/06/07 08:01:24;;;;;;;1.30;1.30;;;;;;;15.74;97.89;95441.38;4356409;32;20214;-60
2022/06/07 08:03:51;;;;;;;0.67;0.67;;;;;;;15.80;98.28;95450.00;4359736;32;20256;-60
2022/06/07 08:06:18;;;;;;;1.10;1.10;;;;;;;15.92;98.43;95450.09;4360936;32;20215;-60
2022/06/07 08:08:50;;;;;;;0.40;0.40;;;;;;;15.76;99.76;95457.91;4360175;32;20192;-60
2022/06/07 08:11:18;;;;;;;0.60;0.60;;;;;;;15.78;100.00;95458.37;4360473;32;20278;-60
2022/06/07 08:13:44;;;;;;;1.00;1.00;;;;;;;15.53;100.00;95456.56;4349789;32;20189;-60
2022/06/07 08:16:10;;;;;;;0.90;0.83;;;;;;;15.51;100.00;95442.72;4360727;32;20193;-60
2022/06/07 08:18:37;;;;;;;0.50;0.50;;;;;;;15.50;100.00;95440.38;4374254;32;20193;-60
2022/06/07 08:21:14;;;;;;;9.00;1.03;;;;;;;15.55;100.00;95443.66;4362446;32;20185;-60
2022/06/07 08:23:39;;;;;;;0.53;0.53;;;;;;;15.74;100.00;95430.69;4363424;32;20192;-60
2022/06/07 08:26:08;;;;;;;0.80;0.80;;;;;;;15.58;99.65;95443.03;4366546;32;20211;-60
2022/06/07 08:28:35;;;;;;;1.37;1.27;;;;;;;15.71;98.43;95444.69;4360899;32;20212;-60
2022/06/07 08:31:02;;;;;;;0.67;0.67;;;;;;;15.79;98.69;95435.81;4346907;32;20205;-60
2022/06/07 08:39:05;;;;;;;0.40;0.40;;;;;;;15.77;99.83;95445.31;4360328;32;20203;-60
2022/06/07 08:41:51;;;;;;;1.17;1.17;;;;;;;15.83;99.93;95454.69;4360370;32;20185;-60
2022/06/07 08:44:27;;;;;;;0.67;0.67;;;;;;;15.78;100.00;95447.66;4355759;32;20204;-60
2022/06/07 08:46:57;;;;;;;1.33;1.33;;;;;;;15.67;100.00;95451.00;4346421;32;20193;-60
2022/06/07 08:49:23;;;;;;;0.80;0.80;;;;;;;15.61;100.00;95445.03;4342972;32;20217;-60
2022/06/07 08:51:58;;;;;;;0.90;0.90;;;;;;;15.57;100.00;95448.72;4343206;32;20228;-61
2022/06/07 08:54:31;;;;;;;0.93;0.73;;;;;;;15.59;100.00;95452.59;4319857;32;20203;-61
2022/06/07 08:57:06;;;;;;;0.83;0.80;;;;;;;15.68;100.00;95452.56;4339728;32;20193;-60
2022/06/07 08:59:32;;;;;;;0.60;0.60;;;;;;;15.70;100.00;95453.81;4357708;32;20192;-60
2022/06/07 09:02:13;;;;;;;1.30;1.20;;;;;;;15.65;100.00;95454.00;4332283;32;20295;-60
2022/06/07 09:04:39;;;;;;;0.53;0.53;;;;;;;15.72;100.00;95451.63;4356278;32;20230;-62
2022/06/07 09:07:15;;;;;;;0.63;0.63;;;;;;;15.71;100.00;95447.38;4338916;32;20216;-60
2022/06/07 09:12:35;;;;;;;0.50;0.50;;;;;;;15.84;100.00;95463.50;4348670;32;20474;-60
2022/06/07 09:15:10;;;;;;;0.57;0.57;;;;;;;15.49;100.00;95452.94;4342041;32;20207;-60
2022/06/07 09:17:40;;;;;;;0.77;0.77;;;;;;;15.47;100.00;95457.81;4340415;32;20193;-60
2022/06/07 09:20:16;;;;;;;1.07;1.07;;;;;;;15.64;100.00;95462.34;4366080;32;20199;-60
2022/06/07 09:23:03;;;;;;;0.57;0.57;;;;;;;15.53;100.00;95453.88;4358865;32;20249;-60
2022/06/07 09:25:39;;;;;;;0.83;0.83;;;;;;;15.64;100.00;95459.66;4360784;32;20288;-60
2022/06/07 09:28:12;;;;;;;0.93;0.93;;;;;;;15.82;100.00;95450.44;4348637;32;20193;-60
2022/06/07 09:30:43;;;;;;;0.80;0.80;;;;;;;15.82;100.00;95450.44;4368526;32;20185;-61
2022/06/07 09:33:34;;;;;;;1.57;1.50;;;;;;;15.86;100.00;95450.59;4341269;32;20253;-61
2022/06/07 09:36:21;;;;;;;0.63;0.63;;;;;;;15.75;100.00;95453.66;4345746;32;20193;-60
2022/06/07 09:38:58;;;;;;;0.70;0.70;;;;;;;15.93;100.00;95454.34;4359404;32;20197;-60
2022/06/07 09:41:36;;;;;;;1.23;1.23;;;;;;;16.02;100.00;95456.94;4347589;32;20221;-60
2022/06/07 09:44:45;;;;;;;2.00;1.90;;;;;;;16.01;100.00;95450.81;4368436;32;20186;-60
2022/06/07 09:47:15;;;;;;;1.20;1.20;;;;;;;15.92;99.76;95452.00;4287229;33;20209;-60
2022/06/07 09:50:08;;;;;;;1.43;1.33;;;;;;;16.04;99.98;95444.03;4294333;33;20198;-60
2022/06/07 09:52:59;;;;;;;1.70;1.60;;;;;;;15.99;100.00;95447.72;4279367;33;20262;-60
2022/06/07 09:55:39;;;;;;;0.90;0.90;;;;;;;16.19;99.54;95458.75;4288887;33;20249;-60
2022/06/07 09:58:39;;;;;;;1.00;1.00;;;;;;;15.88;96.63;95456.41;4341914;32;20185;-60
2022/06/07 10:01:14;;;;;;;1.17;1.17;;;;;;;15.80;97.50;95450.00;4345809;32;20311;-60
2022/06/07 10:03:47;;;;;;;1.70;1.60;;;;;;;15.86;97.38;95454.06;4349970;32;20184;-61
2022/06/07 10:06:21;;;;;;;5.03;3.33;;;;;;;15.79;93.93;95459.91;4359609;32;20197;-60
2022/06/07 10:09:26;;;;;;;1.37;1.37;;;;;;;15.68;94.83;95461.38;4356337;32;20259;-60
2022/06/07 10:12:21;;;;;;;1.83;1.73;;;;;;;15.66;96.12;95455.56;4360083;32;20223;-60
2022/06/07 10:15:10;;;;;;;1.47;1.47;;;;;;;15.51;96.98;95450.75;4346649;32;20239;-61
2022/06/07 10:17:55;;;;;;;1.17;1.17;;;;;;;15.52;96.42;95451.53;4358359;32;20193;-60
2022/06/07 10:20:55;;;;;;;1.37;1.37;;;;;;;15.71;97.26;95447.38;4350477;32;20218;-61
2022/06/07 10:23:36;;;;;;;0.90;0.90;;;;;;;15.79;96.07;95445.78;4356668;32;20193;-61
2022/06/07 10:26:29;;;;;;;1.13;1.13;;;;;;;15.78;96.03;95442.31;4357446;32;20248;-60
2022/06/07 10:29:45;;;;;;;0.93;0.93;;;;;;;15.83;96.55;95446.66;4358989;32;20197;-61
2022/06/07 10:32:19;;;;;;;1.17;1.17;;;;;;;15.76;97.44;95443.75;4279294;33;20225;-60
2022/06/07 10:35:15;;;;;;;1.27;1.17;;;;;;;15.78;98.12;95446.88;4279632;33;20276;-60
2022/06/07 10:38:37;;;;;;;1.00;0.97;;;;;;;15.95;96.78;95454.03;4327925;32;20211;-61
2022/06/07 10:41:32;;;;;;;0.70;0.70;;;;;;;16.07;96.30;95448.75;4328795;32;20213;-60
2022/06/07 10:44:13;;;;;;;1.20;1.20;;;;;;;15.92;97.20;95450.09;4346951;32;20291;-60
2022/06/07 10:46:43;;;;;;;1.50;1.27;;;;;;;16.15;96.46;95443.34;4360363;32;20259;-60
2022/06/07 10:49:38;;;;;;;3.67;1.60;;;;;;;16.03;98.12;95440.56;4352661;32;20192;-61
2022/06/07 10:52:27;;;;;;;0.77;0.77;;;;;;;16.12;98.24;95438.62;4345483;32;20189;-60
2022/06/07 10:55:28;;;;;;;1.40;1.40;;;;;;;16.17;98.89;95437.66;4344959;32;20217;-61
2022/06/07 10:58:28;;;;;;;1.70;1.60;;;;;;;16.11;99.47;95437.06;4281262;33;20231;-60
2022/06/07 11:01:14;;;;;;;1.53;1.43;;;;;;;16.23;99.32;95428.31;4285883;33;20200;-60
2022/06/07 11:04:08;;;;;;;1.17;1.17;;;;;;;16.15;97.79;95424.59;4333335;32;20212;-60
2022/06/07 11:09:53;;;;;;;0.90;0.90;;;;;;;16.15;97.09;95424.59;4350191;32;20299;-60
2022/06/07 11:12:26;;;;;;;1.23;1.23;;;;;;;16.19;96.48;95424.75;4353981;32;20212;-61
2022/06/07 11:15:25;;;;;;;1.57;1.47;;;;;;;16.31;97.68;95432.03;4355925;32;20189;-60
2022/06/07 11:18:13;;;;;;;1.10;1.10;;;;;;;16.37;97.34;95425.41;4356084;32;20203;-61
2022/06/07 11:20:49;;;;;;;1.43;1.43;;;;;;;16.69;96.20;95427.34;4335822;33;20181;-62
2022/06/07 11:23:23;;;;;;;1.50;1.50;;;;;;;16.96;97.31;95425.22;4352959;32;20207;-61
2022/06/07 11:26:08;;;;;;;1.63;1.53;;;;;;;16.99;94.94;95422.66;4356268;32;20219;-61
2022/06/07 11:28:39;;;;;;;1.10;1.10;;;;;;;17.03;94.37;95423.56;4358948;32;20233;-61
2022/06/07 11:31:33;;;;;;;0.70;0.70;;;;;;;17.18;93.82;95416.78;4346470;32;20235;-60
2022/06/07 11:34:15;;;;;;;0.77;0.77;;;;;;;17.35;92.71;95415.78;4347265;32;20290;-61
2022/06/07 11:36:43;;;;;;;1.53;1.53;;;;;;;17.50;92.15;95418.59;4359499;32;20193;-61
2022/06/07 11:39:25;;;;;;;1.43;1.40;;;;;;;17.34;91.86;95428.41;4359024;32;20185;-59
2022/06/07 11:41:57;;;;;;;1.20;1.20;;;;;;;17.24;91.98;95422.72;4351995;32;20212;-60
2022/06/07 11:44:52;;;;;;;0.77;0.67;;;;;;;16.89;93.30;95423.06;4339522;32;20193;-60
2022/06/07 11:47:25;;;;;;;5.17;1.17;;;;;;;16.87;94.51;95427.19;4356424;32;20238;-60
2022/06/07 11:49:57;;;;;;;0.53;0.53;;;;;;;16.96;92.94;95417.94;4340135;32;20186;-60
2022/06/07 11:52:27;;;;;;;2.00;0.77;;;;;;;17.02;90.07;95424.69;4357682;32;20267;-60
2022/06/07 11:55:17;;;;;;;0.63;0.63;;;;;;;17.06;89.28;95420.19;4355321;32;20223;-60
2022/06/07 11:58:04;;;;;;;0.30;0.30;;;;;;;17.28;89.46;95418.22;4353469;32;20208;-60
2022/06/07 12:00:34;;;;;;;0.30;0.30;;;;;;;17.22;88.23;95412.31;4348914;32;20297;-60
2022/06/07 12:03:12;;;;;;;0.60;0.60;;;;;;;17.30;88.99;95408.72;4360617;32;20291;-60
2022/06/07 12:05:43;;;;;;;0.43;0.43;;;;;;;17.23;90.07;95410.41;4355739;32;20207;-60
2022/06/07 12:08:21;;;;;;;0.50;0.43;;;;;;;17.05;90.29;95407.91;4340994;32;20307;-60
2022/06/07 12:11:20;;;;;;;0.83;0.83;;;;;;;16.98;91.43;95410.38;4333824;32;20193;-60
2022/06/07 12:13:52;;;;;;;1.07;1.07;;;;;;;17.02;91.98;95411.28;4368112;32;20243;-60